createdAt,value
2023-02-18T00:01:50.093Z,25.40
2023-02-18T00:04:19.569Z,22.90
2023-02-18T00:06:47.530Z,24.20
2023-02-18T00:09:17.108Z,24.67
2023-02-18T00:11:45.531Z,20.37
2023-02-18T00:14:16.747Z,23.67
2023-02-18T00:16:46.024Z,23.90
2023-02-18T00:19:16.113Z,21.90
2023-02-18T00:21:45.555Z,22.97
2023-02-18T00:24:16.382Z,23.70
2023-02-18T00:26:46.797Z,22.30
2023-02-18T00:29:15.033Z,21.83
2023-02-18T00:31:43.528Z,20.60
2023-02-18T00:34:14.793Z,22.23
2023-02-18T00:36:43.818Z,21.00
2023-02-18T00:39:14.169Z,23.03
2023-02-18T00:41:43.176Z,21.63
2023-02-18T00:44:14.187Z,24.30
2023-02-18T00:46:42.809Z,23.77
2023-02-18T00:49:11.368Z,22.03
2023-02-18T00:51:39.932Z,22.70
2023-02-18T00:54:09.436Z,23.90
2023-02-18T00:56:38.128Z,23.77
2023-02-18T00:59:06.142Z,24.53
2023-02-18T01:01:36.230Z,23.30
2023-02-18T01:04:04.389Z,24.80
2023-02-18T01:06:33.207Z,25.37
2023-02-18T01:09:01.828Z,23.37
2023-02-18T01:11:30.911Z,24.03
2023-02-18T01:13:59.212Z,22.60
2023-02-18T01:16:28.848Z,21.53
2023-02-18T01:18:58.297Z,22.40
2023-02-18T01:21:28.636Z,19.93
2023-02-18T01:23:57.047Z,21.80
2023-02-18T01:26:26.472Z,20.10
2023-02-18T01:28:54.557Z,20.10
2023-02-18T01:31:25.381Z,18.33
2023-02-18T01:34:02.346Z,19.10
2023-02-18T01:36:32.536Z,18.43
2023-02-18T01:39:01.406Z,17.10
2023-02-18T01:41:29.492Z,18.63
2023-02-18T01:44:17.252Z,18.57
2023-02-18T01:46:47.443Z,19.47
2023-02-18T01:49:20.854Z,20.10
2023-02-18T01:51:54.208Z,19.23
2023-02-18T01:54:28.944Z,21.10
2023-02-18T01:57:09.100Z,20.67
2023-02-18T01:59:41.157Z,18.73
2023-02-18T02:02:13.022Z,16.93
2023-02-18T02:04:50.334Z,19.67
2023-02-18T02:07:24.839Z,17.43
2023-02-18T02:09:58.328Z,19.60
2023-02-18T02:12:46.925Z,19.57
2023-02-18T02:15:35.881Z,17.33
2023-02-18T02:18:36.240Z,13.73
2023-02-18T02:21:33.792Z,14.90
2023-02-18T02:24:27.443Z,17.57
2023-02-18T02:27:10.832Z,15.20
2023-02-18T02:30:33.917Z,14.83
2023-02-18T02:33:23.979Z,15.17
2023-02-18T02:36:05.991Z,14.10
2023-02-18T02:38:42.184Z,13.77
2023-02-18T02:41:27.278Z,13.90
2023-02-18T02:44:06.935Z,13.63
2023-02-18T02:46:40.901Z,12.73
2023-02-18T02:49:20.858Z,13.50
2023-02-18T02:52:00.874Z,13.30
2023-02-18T02:54:30.797Z,12.23
2023-02-18T02:57:30.652Z,10.50
2023-02-18T03:00:17.087Z,11.33
2023-02-18T03:03:13.195Z,11.10
2023-02-18T03:05:57.340Z,10.20
2023-02-18T03:08:40.506Z,9.33
2023-02-18T03:11:12.031Z,10.43
2023-02-18T03:13:53.941Z,9.47
2023-02-18T03:16:35.214Z,10.10
2023-02-18T03:19:11.379Z,8.63
2023-02-18T03:21:46.549Z,9.33
2023-02-18T03:24:20.883Z,8.90
2023-02-18T03:26:53.444Z,9.27
2023-02-18T03:29:44.378Z,9.60
2023-02-18T03:32:17.790Z,10.50
2023-02-18T03:34:53.905Z,9.93
2023-02-18T03:37:24.882Z,9.43
2023-02-18T03:39:58.468Z,8.57
2023-02-18T03:42:28.505Z,10.10
2023-02-18T03:44:57.544Z,10.20
2023-02-18T03:47:25.914Z,10.30
2023-02-18T03:49:53.971Z,9.70
2023-02-18T03:52:23.395Z,10.03
2023-02-18T03:54:54.396Z,9.50
2023-02-18T03:57:25.185Z,10.37
2023-02-18T03:59:53.959Z,10.30
2023-02-18T04:02:23.060Z,9.87
2023-02-18T04:04:51.403Z,8.90
2023-02-18T04:07:19.385Z,8.30
2023-02-18T04:09:48.012Z,9.20
2023-02-18T04:12:17.422Z,8.73
2023-02-18T04:14:45.997Z,9.80
2023-02-18T04:17:15.058Z,10.80
2023-02-18T04:19:43.117Z,11.20
2023-02-18T04:22:11.158Z,8.93
2023-02-18T04:24:40.007Z,9.30
2023-02-18T04:27:07.997Z,11.07
2023-02-18T04:29:38.619Z,10.77
2023-02-18T04:32:09.023Z,10.43
2023-02-18T04:34:38.757Z,11.30
2023-02-18T04:37:06.789Z,11.50
2023-02-18T04:39:35.282Z,11.20
2023-02-18T04:42:09.222Z,11.17
2023-02-18T04:44:42.144Z,10.50
2023-02-18T04:47:12.385Z,9.17
2023-02-18T04:49:40.810Z,10.03
2023-02-18T04:52:08.954Z,10.37
2023-02-18T04:54:38.119Z,8.60
2023-02-18T04:57:07.421Z,6.77
2023-02-18T04:59:36.060Z,7.30
2023-02-18T05:02:06.528Z,7.30
2023-02-18T05:04:34.733Z,6.37
2023-02-18T05:07:02.785Z,6.03
2023-02-18T05:09:31.676Z,5.70
2023-02-18T05:11:59.750Z,3.57
2023-02-18T05:14:27.874Z,4.40
2023-02-18T05:16:56.325Z,3.50
2023-02-18T05:19:25.710Z,3.47
2023-02-18T05:21:54.589Z,3.47
2023-02-18T05:24:24.819Z,3.13
2023-02-18T05:26:53.850Z,3.07
2023-02-18T05:29:22.481Z,3.27
2023-02-18T05:31:50.758Z,2.73
2023-02-18T05:34:18.823Z,2.10
2023-02-18T05:36:49.131Z,2.63
2023-02-18T05:39:17.562Z,1.70
2023-02-18T05:41:45.704Z,2.17
2023-02-18T05:44:34.056Z,2.00
2023-02-18T05:47:06.728Z,1.87
2023-02-18T05:49:36.495Z,1.63
2023-02-18T05:52:07.483Z,1.50
2023-02-18T05:54:37.576Z,1.93
2023-02-18T05:57:06.267Z,1.50
2023-02-18T05:59:34.678Z,1.73
2023-02-18T06:02:06.085Z,1.87
2023-02-18T06:04:35.407Z,1.90
2023-02-18T06:07:03.571Z,1.80
2023-02-18T06:09:32.885Z,2.80
2023-02-18T06:12:02.341Z,1.30
2023-02-18T06:14:30.285Z,1.47
2023-02-18T06:16:58.603Z,1.30
2023-02-18T06:19:26.637Z,1.50
2023-02-18T06:21:56.047Z,1.70
2023-02-18T06:24:24.595Z,1.50
2023-02-18T06:26:54.184Z,1.33
2023-02-18T06:29:22.174Z,1.53
2023-02-18T06:32:00.667Z,1.60
2023-02-18T06:34:29.344Z,1.77
2023-02-18T06:36:57.483Z,1.50
2023-02-18T06:39:27.910Z,1.37
2023-02-18T06:41:57.811Z,2.00
2023-02-18T06:44:25.952Z,1.90
2023-02-18T06:46:53.989Z,1.37
2023-02-18T06:49:22.877Z,2.03
2023-02-18T06:51:51.052Z,2.10
2023-02-18T06:54:19.228Z,1.77
2023-02-18T06:56:48.717Z,1.80
2023-02-18T06:59:18.092Z,1.80
2023-02-18T07:01:47.142Z,2.40
2023-02-18T07:04:15.203Z,1.70
2023-02-18T07:06:44.074Z,2.10
2023-02-18T07:09:13.949Z,1.70
2023-02-18T07:11:42.549Z,2.07
2023-02-18T07:14:11.021Z,1.83
2023-02-18T07:16:40.564Z,2.27
2023-02-18T07:19:10.013Z,2.17
2023-02-18T07:21:40.729Z,1.90
2023-02-18T07:24:09.491Z,1.80
2023-02-18T07:26:37.482Z,1.83
2023-02-18T07:29:06.974Z,2.57
2023-02-18T07:31:35.141Z,2.03
2023-02-18T07:34:05.029Z,2.53
2023-02-18T07:36:33.289Z,2.23
2023-02-18T07:39:01.278Z,2.20
2023-02-18T07:41:32.061Z,2.03
2023-02-18T07:44:00.753Z,2.00
2023-02-18T07:46:28.999Z,2.03
2023-02-18T07:49:00.342Z,2.07
2023-02-18T07:51:30.265Z,1.90
2023-02-18T07:53:58.746Z,2.40
2023-02-18T07:56:27.221Z,1.80
2023-02-18T07:58:55.245Z,2.20
2023-02-18T08:01:23.656Z,2.40
2023-02-18T08:03:52.580Z,1.90
2023-02-18T08:06:26.161Z,1.43
2023-02-18T08:08:56.294Z,1.90
2023-02-18T08:11:24.558Z,1.83
2023-02-18T08:13:52.605Z,1.53
2023-02-18T08:16:22.566Z,1.17
2023-02-18T08:18:53.923Z,1.50
2023-02-18T08:21:25.388Z,1.00
2023-02-18T08:23:55.038Z,1.30
2023-02-18T08:26:23.477Z,1.30
2023-02-18T08:28:52.643Z,1.30
2023-02-18T08:31:23.563Z,1.30
2023-02-18T08:33:52.481Z,1.00
2023-02-18T08:36:21.063Z,1.00
2023-02-18T08:38:49.623Z,1.30
2023-02-18T08:41:20.066Z,0.90
2023-02-18T08:43:48.729Z,0.87
2023-02-18T08:46:25.056Z,1.40
2023-02-18T08:49:01.957Z,0.80
2023-02-18T08:51:30.014Z,1.50
2023-02-18T08:54:02.323Z,1.00
2023-02-18T08:56:32.512Z,1.27
2023-02-18T08:59:01.084Z,1.00
2023-02-18T09:01:32.303Z,1.10
2023-02-18T09:04:00.727Z,1.30
2023-02-18T09:06:28.797Z,1.10
2023-02-18T09:08:57.649Z,1.10
2023-02-18T09:11:26.241Z,2.10
2023-02-18T09:13:55.785Z,1.43
2023-02-18T09:16:26.209Z,1.50
2023-02-18T09:18:56.087Z,2.10
2023-02-18T09:21:25.036Z,2.00
2023-02-18T09:23:53.208Z,2.17
2023-02-18T09:26:23.572Z,2.30
2023-02-18T09:28:52.942Z,2.23
2023-02-18T09:31:25.722Z,2.43
2023-02-18T09:33:56.086Z,2.30
2023-02-18T09:36:29.883Z,1.93
2023-02-18T09:38:58.061Z,2.40
2023-02-18T09:41:35.820Z,2.50
2023-02-18T09:44:11.067Z,2.20
2023-02-18T09:46:44.518Z,2.67
2023-02-18T09:49:17.656Z,2.00
2023-02-18T09:51:46.359Z,2.90
2023-02-18T09:54:18.708Z,2.70
2023-02-18T09:56:47.642Z,2.60
2023-02-18T09:59:22.592Z,2.77
2023-02-18T10:01:55.141Z,3.30
2023-02-18T10:04:30.036Z,3.10
2023-02-18T10:06:59.821Z,2.50
2023-02-18T10:09:34.184Z,4.10
2023-02-18T10:12:16.098Z,2.83
2023-02-18T10:14:45.409Z,3.40
2023-02-18T10:17:17.911Z,2.80
2023-02-18T10:19:50.123Z,2.83
2023-02-18T10:22:20.966Z,3.57
2023-02-18T10:24:53.092Z,3.73
2023-02-18T10:27:26.720Z,3.00
2023-02-18T10:29:57.293Z,3.90
2023-02-18T10:32:31.880Z,3.77
2023-02-18T10:35:07.149Z,4.17
2023-02-18T10:37:49.588Z,2.80
2023-02-18T10:40:24.847Z,2.90
2023-02-18T10:43:12.570Z,3.90
2023-02-18T10:45:50.245Z,2.77
2023-02-18T10:48:39.338Z,2.97
2023-02-18T10:51:16.728Z,3.20
2023-02-18T10:53:46.268Z,3.10
2023-02-18T10:56:36.026Z,3.73
2023-02-18T10:59:13.140Z,3.83
2023-02-18T11:01:48.169Z,3.03
2023-02-18T11:04:20.971Z,3.50
2023-02-18T11:06:54.877Z,3.50
2023-02-18T11:09:29.346Z,3.10
2023-02-18T11:12:08.712Z,4.07
2023-02-18T11:14:47.940Z,4.10
2023-02-18T11:17:26.711Z,2.50
2023-02-18T11:19:59.216Z,3.47
2023-02-18T11:22:32.092Z,2.67
2023-02-18T11:25:03.948Z,3.27
2023-02-18T11:27:41.157Z,2.73
2023-02-18T11:30:22.618Z,2.97
2023-02-18T11:32:53.543Z,2.77
2023-02-18T11:35:25.893Z,2.70
2023-02-18T11:37:55.221Z,3.30
2023-02-18T11:40:26.282Z,2.67
2023-02-18T11:43:06.109Z,2.73
2023-02-18T11:45:36.265Z,2.90
2023-02-18T11:48:11.133Z,2.37
2023-02-18T11:50:40.578Z,2.73
2023-02-18T11:53:30.480Z,2.70
2023-02-18T11:56:02.354Z,2.37
2023-02-18T11:58:40.065Z,2.80
2023-02-18T12:01:17.174Z,2.30
2023-02-18T12:03:53.773Z,2.83
2023-02-18T12:06:28.073Z,2.80
2023-02-18T12:09:02.475Z,3.07
2023-02-18T12:11:36.607Z,2.60
2023-02-18T12:14:04.924Z,2.43
2023-02-18T12:16:41.360Z,2.70
2023-02-18T12:19:30.434Z,2.90
2023-02-18T12:22:06.134Z,2.30
2023-02-18T12:24:53.557Z,2.57
2023-02-18T12:27:30.579Z,2.30
2023-02-18T12:30:23.262Z,2.80
2023-02-18T12:33:02.178Z,2.80
2023-02-18T12:35:45.732Z,2.70
2023-02-18T12:38:47.144Z,3.93
2023-02-18T12:41:43.306Z,2.70
2023-02-18T12:44:27.533Z,3.07
2023-02-18T12:47:18.915Z,2.63
2023-02-18T12:50:12.677Z,3.23
2023-02-18T12:52:57.819Z,3.00
2023-02-18T12:55:46.196Z,3.03
2023-02-18T12:58:26.592Z,3.00
2023-02-18T13:01:20.056Z,4.10
2023-02-18T13:04:34.998Z,3.67
2023-02-18T13:07:32.189Z,4.87
2023-02-18T13:10:12.391Z,5.30
2023-02-18T13:12:47.194Z,3.80
2023-02-18T13:15:22.467Z,3.93
2023-02-18T13:17:52.575Z,5.13
2023-02-18T13:20:26.580Z,5.10
2023-02-18T13:22:55.109Z,5.90
2023-02-18T13:25:24.147Z,5.47
2023-02-18T13:28:07.081Z,6.73
2023-02-18T13:30:45.360Z,5.70
2023-02-18T13:33:18.462Z,5.60
2023-02-18T13:35:54.026Z,5.53
2023-02-18T13:38:41.790Z,4.77
2023-02-18T13:41:10.620Z,5.83
2023-02-18T13:43:42.197Z,5.70
2023-02-18T13:46:14.361Z,5.10
2023-02-18T13:48:52.369Z,4.87
2023-02-18T13:51:34.108Z,5.50
2023-02-18T13:54:06.254Z,5.60
2023-02-18T13:56:41.589Z,5.43
2023-02-18T13:59:20.739Z,5.20
2023-02-18T14:01:50.928Z,4.30
2023-02-18T14:04:49.430Z,4.90
2023-02-18T14:07:46.665Z,6.10
2023-02-18T14:10:32.814Z,5.77
2023-02-18T14:13:39.594Z,5.93
2023-02-18T14:16:12.433Z,6.33
2023-02-18T14:19:02.824Z,6.33
2023-02-18T14:21:43.178Z,6.70
2023-02-18T14:24:14.204Z,7.73
2023-02-18T14:26:46.813Z,8.07
2023-02-18T14:29:22.280Z,7.70
2023-02-18T14:32:12.038Z,8.27
2023-02-18T14:35:21.494Z,10.30
2023-02-18T14:38:27.266Z,10.73
2023-02-18T14:41:09.323Z,10.40
2023-02-18T14:44:15.264Z,11.30
2023-02-18T14:46:55.293Z,11.40
2023-02-18T14:49:40.228Z,11.30
2023-02-18T14:52:18.800Z,11.83
2023-02-18T14:54:48.073Z,11.57
2023-02-18T14:57:20.262Z,12.73
2023-02-18T14:59:50.221Z,13.47
2023-02-18T15:02:22.740Z,12.77
2023-02-18T15:04:52.380Z,13.73
2023-02-18T15:07:22.645Z,14.03
2023-02-18T15:09:54.037Z,12.20
2023-02-18T15:12:25.950Z,14.80
2023-02-18T15:14:56.914Z,15.60
2023-02-18T15:17:27.618Z,13.63
2023-02-18T15:19:58.838Z,13.10
2023-02-18T15:22:34.011Z,14.77
2023-02-18T15:25:04.238Z,13.27
2023-02-18T15:27:36.235Z,13.30
2023-02-18T15:30:18.500Z,13.17
2023-02-18T15:32:52.064Z,14.00
2023-02-18T15:35:24.373Z,14.40
2023-02-18T15:37:55.762Z,14.30
2023-02-18T15:40:28.335Z,13.37
2023-02-18T15:43:00.329Z,15.33
2023-02-18T15:45:33.661Z,12.00
2023-02-18T15:48:02.916Z,14.33
2023-02-18T15:50:36.259Z,15.10
2023-02-18T15:53:10.256Z,13.40
2023-02-18T15:55:43.464Z,14.57
2023-02-18T15:58:18.960Z,12.07
2023-02-18T16:00:51.257Z,12.70
2023-02-18T16:03:23.869Z,14.03
2023-02-18T16:06:12.629Z,11.23
2023-02-18T16:08:41.454Z,11.53
2023-02-18T16:11:13.789Z,11.43
2023-02-18T16:13:48.459Z,11.97
2023-02-18T16:16:25.987Z,14.20
2023-02-18T16:18:56.249Z,13.77
2023-02-18T16:21:33.375Z,13.47
2023-02-18T16:24:04.478Z,13.50
2023-02-18T16:26:42.535Z,14.10
2023-02-18T16:29:14.697Z,15.57
2023-02-18T16:31:42.791Z,17.10
2023-02-18T16:34:11.435Z,18.87
2023-02-18T16:37:01.579Z,19.03
2023-02-18T16:39:32.902Z,17.80
2023-02-18T16:42:01.321Z,18.57
2023-02-18T16:44:29.405Z,19.97
2023-02-18T16:46:58.329Z,18.97
2023-02-18T16:49:27.446Z,22.17
2023-02-18T16:51:57.525Z,21.10
2023-02-18T16:54:26.156Z,21.37
2023-02-18T16:56:54.396Z,21.33
2023-02-18T16:59:22.637Z,19.10
2023-02-18T17:01:50.637Z,21.83
2023-02-18T17:04:20.547Z,20.23
2023-02-18T17:06:48.708Z,17.97
2023-02-18T17:09:24.487Z,17.67
2023-02-18T17:11:56.718Z,17.73
2023-02-18T17:14:25.360Z,18.33
2023-02-18T17:16:57.883Z,15.83
2023-02-18T17:19:25.906Z,16.83
2023-02-18T17:21:53.899Z,14.60
2023-02-18T17:24:23.991Z,14.57
2023-02-18T17:26:52.199Z,15.17
2023-02-18T17:29:20.234Z,13.63
2023-02-18T17:31:54.489Z,14.17
2023-02-18T17:34:26.278Z,15.37
2023-02-18T17:36:55.879Z,13.50
2023-02-18T17:39:26.077Z,15.77
2023-02-18T17:41:54.640Z,13.30
2023-02-18T17:44:24.560Z,13.10
2023-02-18T17:46:55.128Z,15.97
2023-02-18T17:49:23.299Z,15.27
2023-02-18T17:51:53.323Z,15.70
2023-02-18T17:54:24.918Z,16.67
2023-02-18T17:56:55.907Z,17.40
2023-02-18T17:59:24.493Z,14.07
2023-02-18T18:01:53.037Z,13.63
2023-02-18T18:04:21.507Z,12.80
2023-02-18T18:06:53.319Z,13.17
2023-02-18T18:09:21.282Z,13.80
2023-02-18T18:11:49.799Z,14.03
2023-02-18T18:14:19.684Z,19.13
2023-02-18T18:16:47.709Z,17.43
2023-02-18T18:19:15.721Z,15.13
2023-02-18T18:21:44.336Z,14.70
2023-02-18T18:24:13.294Z,14.90
2023-02-18T18:26:45.627Z,14.77
2023-02-18T18:29:13.957Z,15.40
2023-02-18T18:31:43.376Z,17.27
2023-02-18T18:34:12.408Z,15.27
2023-02-18T18:36:41.934Z,15.17
2023-02-18T18:39:11.267Z,14.50
2023-02-18T18:41:39.530Z,15.63
2023-02-18T18:44:07.992Z,15.20
2023-02-18T18:46:36.317Z,13.57
2023-02-18T18:49:05.802Z,12.90
2023-02-18T18:51:35.101Z,14.40
2023-02-18T18:54:03.129Z,12.70
2023-02-18T18:56:31.090Z,13.17
2023-02-18T18:58:59.907Z,11.50
2023-02-18T19:01:29.144Z,10.10
2023-02-18T19:03:57.934Z,11.10
2023-02-18T19:06:28.738Z,11.47
2023-02-18T19:08:56.729Z,11.70
2023-02-18T19:11:25.156Z,11.10
2023-02-18T19:13:55.211Z,10.07
2023-02-18T19:16:28.711Z,10.50
2023-02-18T19:18:58.271Z,11.43
2023-02-18T19:21:27.671Z,11.47
2023-02-18T19:23:55.706Z,11.20
2023-02-18T19:26:24.231Z,12.10
2023-02-18T19:28:52.613Z,13.77
2023-02-18T19:31:24.014Z,12.50
2023-02-18T19:33:54.366Z,11.57
2023-02-18T19:36:22.835Z,12.83
2023-02-18T19:38:56.377Z,12.27
2023-02-18T19:41:25.276Z,12.13
2023-02-18T19:43:54.945Z,13.97
2023-02-18T19:46:24.474Z,12.20
2023-02-18T19:48:53.398Z,11.23
2023-02-18T19:51:23.523Z,10.10
2023-02-18T19:53:54.383Z,10.00
2023-02-18T19:56:24.661Z,9.60
2023-02-18T19:58:56.288Z,9.63
2023-02-18T20:01:27.337Z,10.40
2023-02-18T20:03:58.032Z,11.27
2023-02-18T20:06:26.899Z,13.60
2023-02-18T20:08:57.190Z,13.33
2023-02-18T20:11:26.400Z,15.70
2023-02-18T20:13:54.395Z,14.80
2023-02-18T20:16:23.221Z,14.90
2023-02-18T20:18:51.662Z,16.73
2023-02-18T20:21:19.904Z,16.53
2023-02-18T20:23:47.910Z,15.40
2023-02-18T20:26:17.830Z,16.40
2023-02-18T20:28:45.868Z,13.83
2023-02-18T20:31:16.958Z,13.87
2023-02-18T20:33:45.908Z,15.00
2023-02-18T20:36:15.527Z,13.97
2023-02-18T20:38:44.184Z,14.40
2023-02-18T20:41:18.199Z,13.20
2023-02-18T20:43:48.791Z,14.87
2023-02-18T20:46:21.106Z,14.87
2023-02-18T20:48:49.903Z,14.17
2023-02-18T20:51:20.787Z,12.70
2023-02-18T20:53:49.803Z,12.93
2023-02-18T20:56:20.774Z,13.80
2023-02-18T20:58:52.236Z,12.33
2023-02-18T21:01:20.731Z,14.17
2023-02-18T21:03:49.385Z,11.63
2023-02-18T21:06:21.232Z,13.83
2023-02-18T21:08:51.531Z,13.57
2023-02-18T21:11:21.593Z,12.60
2023-02-18T21:13:52.910Z,11.70
2023-02-18T21:16:22.408Z,13.17
2023-02-18T21:18:51.558Z,12.60
2023-02-18T21:21:20.777Z,13.67
2023-02-18T21:23:48.788Z,12.73
2023-02-18T21:26:19.042Z,13.30
2023-02-18T21:28:53.564Z,11.83
2023-02-18T21:31:27.472Z,12.93
2023-02-18T21:33:56.610Z,13.27
2023-02-18T21:36:27.809Z,16.17
2023-02-18T21:38:57.669Z,15.43
2023-02-18T21:41:27.798Z,14.40
2023-02-18T21:43:56.268Z,13.87
2023-02-18T21:46:28.320Z,14.43
2023-02-18T21:49:10.246Z,13.73
2023-02-18T21:52:08.644Z,14.40
2023-02-18T21:54:40.188Z,12.77
2023-02-18T21:57:12.755Z,14.30
2023-02-18T21:59:41.369Z,15.87
2023-02-18T22:02:17.620Z,15.53
2023-02-18T22:04:46.674Z,14.23
2023-02-18T22:07:15.891Z,12.13
2023-02-18T22:10:07.436Z,12.47
2023-02-18T22:12:35.961Z,11.30
2023-02-18T22:15:04.350Z,11.23
2023-02-18T22:17:37.088Z,10.40
2023-02-18T22:20:07.121Z,11.40
2023-02-18T22:22:35.253Z,11.90
2023-02-18T22:25:03.228Z,9.20
2023-02-18T22:27:31.865Z,11.13
2023-02-18T22:29:59.869Z,10.20
2023-02-18T22:32:28.991Z,10.30
2023-02-18T22:34:59.174Z,10.93
2023-02-18T22:37:27.231Z,10.63
2023-02-18T22:39:55.940Z,10.87
2023-02-18T22:42:24.421Z,11.00
2023-02-18T22:44:52.397Z,12.20
2023-02-18T22:47:21.474Z,10.10
2023-02-18T22:49:49.471Z,10.63
2023-02-18T22:52:19.733Z,10.80
2023-02-18T22:54:50.329Z,11.47
2023-02-18T22:57:19.451Z,12.40
2023-02-18T22:59:47.469Z,11.87
2023-02-18T23:02:15.881Z,11.70
2023-02-18T23:04:44.504Z,12.10
2023-02-18T23:07:12.608Z,13.50
2023-02-18T23:09:42.258Z,13.30
2023-02-18T23:12:10.833Z,12.33
2023-02-18T23:14:39.021Z,12.43
2023-02-18T23:17:18.040Z,14.20
2023-02-18T23:19:49.483Z,12.07
2023-02-18T23:22:19.834Z,12.50
2023-02-18T23:24:51.220Z,11.47
2023-02-18T23:27:19.976Z,10.37
2023-02-18T23:29:48.246Z,10.73
2023-02-18T23:32:20.473Z,10.80
2023-02-18T23:34:52.144Z,9.97
2023-02-18T23:37:43.376Z,9.27
2023-02-18T23:40:15.302Z,10.23
2023-02-18T23:42:43.756Z,9.40
2023-02-18T23:45:12.213Z,10.70
2023-02-18T23:47:41.035Z,10.93
2023-02-18T23:50:09.246Z,9.90
2023-02-18T23:52:38.883Z,10.73
2023-02-18T23:55:07.236Z,11.10
2023-02-18T23:57:37.471Z,10.80
